Time;durP1;ratioP1;P1;durP2;ratioP2;P2;SDS_P1;SDS_P2;PMS_P1;PMS_P2;Temp;Humidity;BMP_temperature;BMP_pressure;BME280_temperature;BME280_humidity;BME280_pressure;Samples;Min_cycle;Max_cycle;Signal;HPM_P1;HPM_P2
2021/12/14 00:01:55;;;;;;;3.60;3.30;;;;;;;-0.28;100.00;61970.28;5041729;28;20232;-78
2021/12/14 00:04:25;;;;;;;3.75;3.40;;;;;;;-0.27;100.00;61966.31;5040549;28;20277;-78
2021/12/14 00:06:54;;;;;;;2.83;2.63;;;;;;;-0.31;100.00;61965.22;5045517;28;20537;-78
2021/12/14 00:09:28;;;;;;;4.57;3.28;;;;;;;-0.34;100.00;61964.13;5045887;28;20225;-79
2021/12/14 00:12:12;;;;;;;3.20;3.00;;;;;;;-0.34;100.00;61967.16;5043162;28;20494;-78
2021/12/14 00:17:29;;;;;;;3.17;2.83;;;;;;;-0.38;100.00;61960.06;5045791;28;20214;-77
2021/12/14 00:19:59;;;;;;;3.97;3.33;;;;;;;-0.38;100.00;61960.53;5044403;28;20226;-78
2021/12/14 00:22:35;;;;;;;3.58;3.28;;;;;;;-0.33;100.00;61965.16;5039422;28;20418;-78
2021/12/14 00:25:04;;;;;;;3.47;3.17;;;;;;;-0.30;100.00;61966.25;5042505;28;20209;-78
2021/12/14 00:27:31;;;;;;;3.13;2.85;;;;;;;-0.34;100.00;61967.16;5045477;28;20241;-78
2021/12/14 00:30:00;;;;;;;4.35;3.42;;;;;;;-0.30;100.00;61968.25;5045204;28;20316;-78
2021/12/14 00:32:31;;;;;;;3.17;2.88;;;;;;;-0.34;100.00;61964.66;5043664;28;20400;-79
2021/12/14 00:35:02;;;;;;;3.80;3.03;;;;;;;-0.32;100.00;61968.69;5042075;28;20202;-78
2021/12/14 00:37:33;;;;;;;4.40;4.00;;;;;;;-0.31;100.00;61972.22;5033215;28;20390;-78
2021/12/14 00:40:06;;;;;;;3.63;3.33;;;;;;;-0.39;100.00;61962.03;5043366;28;20238;-79
2021/12/14 00:42:34;;;;;;;3.35;3.05;;;;;;;-0.37;100.00;61961.06;5046281;28;20226;-77
2021/12/14 00:45:01;;;;;;;3.55;3.22;;;;;;;-0.43;100.00;61959.94;5040714;28;20202;-79
2021/12/14 00:47:28;;;;;;;5.45;2.95;;;;;;;-0.36;100.00;61965.09;5044438;28;20417;-78
2021/12/14 00:49:55;;;;;;;3.60;3.30;;;;;;;-0.32;100.00;61966.69;5043858;28;20396;-78
2021/12/14 00:52:22;;;;;;;4.32;3.92;;;;;;;-0.31;100.00;61964.72;5044129;28;20201;-79
2021/12/14 00:54:49;;;;;;;2.95;2.72;;;;;;;-0.20;100.00;61975.97;5043615;28;20206;-78
2021/12/14 00:57:18;;;;;;;5.53;3.70;;;;;;;-0.27;100.00;61971.81;5043946;28;20201;-79
2021/12/14 00:59:45;;;;;;;2.85;2.65;;;;;;;-0.20;100.00;61985.97;5043995;28;20403;-79
2021/12/14 01:02:18;;;;;;;3.17;2.97;;;;;;;-0.19;100.00;61982.50;5037310;28;20205;-77
2021/12/14 01:04:48;;;;;;;2.60;2.40;;;;;;;-0.24;100.00;61977.41;5043184;28;20503;-78
2021/12/14 01:07:18;;;;;;;3.17;2.88;;;;;;;-0.15;100.00;61986.09;5043926;28;20213;-78
2021/12/14 01:09:48;;;;;;;4.50;3.10;;;;;;;-0.23;100.00;61975.94;5041609;28;20225;-77
2021/12/14 01:12:28;;;;;;;3.33;3.03;;;;;;;-0.33;100.00;61965.16;5045335;28;20202;-77
2021/12/14 01:15:12;;;;;;;3.65;3.35;;;;;;;-0.27;100.00;61971.81;5047133;28;20244;-78
2021/12/14 01:17:43;;;;;;;3.28;2.97;;;;;;;-0.24;100.00;61974.38;5043708;28;20274;-77
2021/12/14 01:20:14;;;;;;;6.45;3.40;;;;;;;-0.31;100.00;61967.72;5038510;28;20229;-78
2021/12/14 01:22:45;;;;;;;3.20;3.00;;;;;;;-0.27;100.00;61971.31;5040910;28;20288;-78
2021/12/14 01:25:17;;;;;;;3.42;3.13;;;;;;;-0.26;100.00;61975.34;5043768;28;20226;-77
2021/12/14 01:27:49;;;;;;;3.63;3.30;;;;;;;-0.21;100.00;61979.97;5043867;28;20233;-78
2021/12/14 01:30:26;;;;;;;3.22;2.92;;;;;;;-0.20;100.00;61980.97;5038678;28;20198;-77
2021/12/14 01:32:56;;;;;;;3.85;3.05;;;;;;;-0.22;100.00;61979.44;5034332;28;20253;-79
2021/12/14 01:35:29;;;;;;;3.00;2.80;;;;;;;-0.21;100.00;61974.97;5043991;28;20198;-77
2021/12/14 01:38:16;;;;;;;2.85;2.58;;;;;;;-0.22;100.00;61979.44;5043783;28;20220;-78
2021/12/14 01:40:55;;;;;;;3.53;3.20;;;;;;;-0.24;100.00;61976.88;5040602;28;20202;-78
2021/12/14 01:43:28;;;;;;;3.10;2.90;;;;;;;-0.35;100.00;61961.13;5043798;28;20224;-77
2021/12/14 01:45:56;;;;;;;3.03;2.63;;;;;;;-0.35;100.00;61963.13;5052198;28;20206;-78
2021/12/14 01:48:24;;;;;;;2.97;2.78;;;;;;;-0.34;100.00;61962.16;5056965;28;20608;-77
2021/12/14 01:50:57;;;;;;;3.63;3.33;;;;;;;-0.26;100.00;61972.84;5052852;28;20206;-77
2021/12/14 01:53:25;;;;;;;4.10;3.30;;;;;;;-0.30;100.00;61966.25;5055615;28;20252;-78
2021/12/14 01:55:56;;;;;;;3.05;2.83;;;;;;;-0.26;100.00;61974.84;5050079;28;20499;-77
2021/12/14 01:58:33;;;;;;;4.82;3.80;;;;;;;-0.25;100.00;61968.88;5047924;28;20222;-78
2021/12/14 02:01:04;;;;;;;3.90;3.38;;;;;;;-0.28;100.00;61967.78;5045587;28;20536;-79
2021/12/14 02:03:39;;;;;;;3.53;3.22;;;;;;;-0.28;100.00;61970.28;5047698;28;20226;-78
2021/12/14 02:06:07;;;;;;;3.40;3.10;;;;;;;-0.29;100.00;61977.28;5048630;28;20209;-77
2021/12/14 02:08:36;;;;;;;2.92;2.72;;;;;;;-0.34;100.00;61964.66;5049272;28;20245;-77
2021/12/14 02:11:07;;;;;;;3.47;3.17;;;;;;;-0.30;100.00;61968.75;5041570;28;20210;-77
2021/12/14 02:13:41;;;;;;;4.43;3.63;;;;;;;-0.22;100.00;61976.94;5050746;28;20260;-78
2021/12/14 02:16:10;;;;;;;5.15;3.55;;;;;;;-0.21;100.00;61982.47;5050676;28;20202;-76
2021/12/14 02:18:38;;;;;;;3.47;3.17;;;;;;;-0.26;100.00;61975.34;5038770;28;20447;-76
2021/12/14 02:21:11;;;;;;;3.20;2.97;;;;;;;-0.22;100.00;61979.44;5042861;28;20201;-77
2021/12/14 02:23:43;;;;;;;3.22;2.90;;;;;;;-0.21;100.00;61984.97;5047071;28;20245;-78
2021/12/14 02:26:22;;;;;;;3.85;3.35;;;;;;;-0.26;100.00;61975.34;5045627;28;20225;-77
2021/12/14 02:28:49;;;;;;;3.28;2.97;;;;;;;-0.26;100.00;61969.84;5042295;28;20272;-78
2021/12/14 02:31:19;;;;;;;4.20;3.38;;;;;;;-0.30;100.00;61966.25;5042127;28;20198;-78
2021/12/14 02:33:49;;;;;;;3.30;3.10;;;;;;;-0.36;100.00;61962.59;5045954;28;20311;-79
2021/12/14 02:36:23;;;;;;;7.32;3.58;;;;;;;-0.26;100.00;61972.84;5046065;28;20236;-78
2021/12/14 02:39:03;;;;;;;3.88;3.20;;;;;;;-0.26;100.00;61975.34;5046255;28;20279;-78
2021/12/14 02:41:30;;;;;;;3.58;3.28;;;;;;;-0.39;100.00;61962.03;5042416;28;20300;-77
2021/12/14 02:43:59;;;;;;;4.78;3.65;;;;;;;-0.25;100.00;61973.34;5046233;28;20418;-77
2021/12/14 02:46:33;;;;;;;3.80;3.50;;;;;;;-0.26;100.00;61972.34;5044787;28;20229;-76
2021/12/14 02:49:04;;;;;;;3.75;3.33;;;;;;;-0.34;100.00;61969.66;5026034;28;20230;-78
2021/12/14 02:51:36;;;;;;;4.38;3.60;;;;;;;-0.24;100.00;61974.38;5035379;28;20205;-78
2021/12/14 02:54:05;;;;;;;3.97;3.67;;;;;;;-0.25;100.00;61973.88;5046568;28;20291;-77
2021/12/14 02:56:35;;;;;;;3.20;3.00;;;;;;;-0.26;100.00;61972.34;5045711;28;20502;-77
2021/12/14 02:59:12;;;;;;;4.65;4.07;;;;;;;-0.23;100.00;61977.91;5042915;28;20321;-78
2021/12/14 03:01:41;;;;;;;3.65;3.35;;;;;;;-0.25;100.00;61973.88;5041072;28;20255;-78
2021/12/14 03:04:10;;;;;;;4.38;3.70;;;;;;;-0.39;100.00;61959.53;5044908;28;20217;-78
2021/12/14 03:06:45;;;;;;;5.03;3.90;;;;;;;-0.38;100.00;61957.53;5046073;28;20201;-78
2021/12/14 03:09:31;;;;;;;3.97;3.50;;;;;;;-0.39;100.00;61959.53;5046525;28;20225;-78
2021/12/14 03:11:59;;;;;;;5.60;3.95;;;;;;;-0.37;100.00;61964.09;5045462;28;20261;-78
2021/12/14 03:14:26;;;;;;;4.40;4.00;;;;;;;-0.31;100.00;61967.22;5043675;28;20538;-77
2021/12/14 03:16:53;;;;;;;5.80;3.63;;;;;;;-0.30;100.00;61971.25;5034413;28;20244;-78
2021/12/14 03:19:20;;;;;;;4.90;4.05;;;;;;;-0.28;100.00;61972.78;5045374;28;20232;-78
2021/12/14 03:21:49;;;;;;;3.88;3.58;;;;;;;-0.28;100.00;61970.28;5046265;28;20206;-77
2021/12/14 03:24:19;;;;;;;5.13;3.50;;;;;;;-0.31;100.00;61964.72;5045171;28;20226;-77
2021/12/14 03:26:51;;;;;;;4.40;3.97;;;;;;;-0.37;100.00;61961.59;5040459;28;20190;-78
2021/12/14 03:29:22;;;;;;;4.05;3.75;;;;;;;-0.27;100.00;61971.31;5046223;28;20248;-78
2021/12/14 03:31:51;;;;;;;3.58;3.28;;;;;;;-0.45;100.00;61953.38;5045703;28;20202;-78
2021/12/14 03:34:21;;;;;;;3.90;3.60;;;;;;;-0.48;100.00;61952.81;5047112;28;20245;-77
2021/12/14 03:36:53;;;;;;;3.17;2.95;;;;;;;-0.51;100.00;61947.25;5040245;28;20514;-77
2021/12/14 03:39:24;;;;;;;3.42;3.15;;;;;;;-0.46;100.00;61954.34;5044213;28;20218;-78
2021/12/14 03:41:55;;;;;;;3.80;3.50;;;;;;;-0.45;100.00;61955.38;5045655;28;20225;-77
2021/12/14 03:44:24;;;;;;;4.25;3.38;;;;;;;-0.48;100.00;61952.28;5045191;28;20226;-77
2021/12/14 03:46:54;;;;;;;4.80;3.55;;;;;;;-0.44;100.00;61954.41;5036439;28;20198;-77
2021/12/14 03:49:30;;;;;;;3.35;3.05;;;;;;;-0.54;100.00;61951.16;5036426;28;20403;-77
2021/12/14 03:51:58;;;;;;;4.43;4.13;;;;;;;-0.56;100.00;61941.59;5035138;28;20265;-78
2021/12/14 03:54:26;;;;;;;3.28;3.08;;;;;;;-0.57;100.00;61940.59;5046402;28;20244;-78
2021/12/14 03:56:54;;;;;;;4.18;3.78;;;;;;;-0.55;100.00;61943.13;5045280;28;20206;-77
2021/12/14 03:59:22;;;;;;;3.97;3.78;;;;;;;-0.53;100.00;61947.16;5044811;28;20245;-78
2021/12/14 04:01:52;;;;;;;5.50;3.95;;;;;;;-0.55;100.00;61942.63;5044169;28;20293;-77
2021/12/14 04:04:21;;;;;;;3.88;3.38;;;;;;;-0.59;100.00;61938.53;5042264;28;20238;-80
2021/12/14 04:06:52;;;;;;;3.00;2.80;;;;;;;-0.56;100.00;61944.09;5046579;28;20260;-77
2021/12/14 04:09:23;;;;;;;3.28;2.97;;;;;;;-0.57;100.00;61943.59;5044645;28;20613;-78
2021/12/14 04:11:50;;;;;;;4.03;3.53;;;;;;;-0.53;100.00;61944.66;5046460;28;20203;-77
2021/12/14 04:14:18;;;;;;;3.83;3.53;;;;;;;-0.55;100.00;61943.13;5046204;28;20249;-78
2021/12/14 04:16:48;;;;;;;3.72;3.42;;;;;;;-0.54;100.00;61941.16;5043534;28;20449;-79
2021/12/14 04:19:20;;;;;;;3.65;3.35;;;;;;;-0.49;100.00;61946.78;5045101;28;20222;-78
2021/12/14 04:21:48;;;;;;;4.57;3.30;;;;;;;-0.50;100.00;61950.75;5043262;28;20229;-77
2021/12/14 04:24:20;;;;;;;4.13;3.80;;;;;;;-0.42;100.00;61956.47;5047004;28;20477;-77
2021/12/14 04:26:49;;;;;;;4.10;3.50;;;;;;;-0.48;100.00;61950.31;5050041;28;20257;-76
2021/12/14 04:29:18;;;;;;;4.05;3.65;;;;;;;-0.52;100.00;61948.22;5052212;28;20348;-77
2021/12/14 04:31:47;;;;;;;3.95;3.50;;;;;;;-0.57;100.00;61941.09;5039903;28;20198;-77
2021/12/14 04:34:17;;;;;;;4.18;3.72;;;;;;;-0.53;100.00;61942.16;5044742;28;20233;-77
2021/12/14 04:36:46;;;;;;;3.63;3.33;;;;;;;-0.57;100.00;61941.09;5053805;28;20197;-78
2021/12/14 04:39:35;;;;;;;3.97;3.58;;;;;;;-0.60;100.00;61940.53;5047841;28;20214;-78
2021/12/14 04:53:27;;;;;;;4.75;4.20;;;;;;;-0.64;100.00;61935.91;5043427;28;20241;-76
2021/12/14 04:55:56;;;;;;;7.40;4.43;;;;;;;-0.58;100.00;61942.06;5044191;28;20229;-77
2021/12/14 04:58:28;;;;;;;7.20;3.95;;;;;;;-0.56;100.00;61939.63;5042087;28;20441;-76
2021/12/14 05:00:55;;;;;;;4.07;3.67;;;;;;;-0.54;100.00;61946.66;5043812;28;20233;-77
2021/12/14 05:03:26;;;;;;;5.03;4.53;;;;;;;-0.59;100.00;61936.03;5034463;28;20253;-76
2021/12/14 05:06:08;;;;;;;4.13;3.78;;;;;;;-0.46;100.00;61949.34;5031808;28;20206;-77
2021/12/14 05:11:21;;;;;;;5.18;4.38;;;;;;;-0.45;100.00;61952.88;5041300;28;20272;-77
2021/12/14 05:13:53;;;;;;;4.53;4.13;;;;;;;-0.52;100.00;61945.72;5036236;28;20242;-79
2021/12/14 05:16:23;;;;;;;5.20;4.70;;;;;;;-0.40;100.00;61961.00;5043238;28;20506;-78
2021/12/14 05:18:55;;;;;;;4.85;4.40;;;;;;;-0.45;100.00;61950.88;5035668;28;20238;-78
2021/12/14 05:21:25;;;;;;;4.55;4.20;;;;;;;-0.45;100.00;61955.88;5040176;28;20210;-79
2021/12/14 05:23:53;;;;;;;7.50;4.18;;;;;;;-0.45;100.00;61950.88;5043522;28;20257;-78
2021/12/14 05:26:21;;;;;;;3.40;3.10;;;;;;;-0.42;100.00;61956.47;5047843;28;20256;-78
2021/12/14 05:28:48;;;;;;;5.15;4.68;;;;;;;-0.43;100.00;61954.94;5046988;28;20213;-78
2021/12/14 05:31:17;;;;;;;5.35;4.78;;;;;;;-0.39;100.00;61959.53;5046686;28;20202;-77
2021/12/14 05:33:44;;;;;;;5.78;4.18;;;;;;;-0.37;100.00;61961.59;5042930;28;20569;-78
2021/12/14 05:36:15;;;;;;;5.95;5.32;;;;;;;-0.33;100.00;61965.16;5039170;28;20194;-78
2021/12/14 05:38:53;;;;;;;7.60;5.10;;;;;;;-0.30;100.00;61963.75;5046503;28;20507;-78
2021/12/14 05:44:12;;;;;;;6.18;4.82;;;;;;;-0.38;100.00;61965.53;5032012;28;20241;-78
2021/12/14 05:46:42;;;;;;;5.45;4.45;;;;;;;-0.43;100.00;61952.94;5047473;28;20503;-78
2021/12/14 05:49:11;;;;;;;7.72;4.88;;;;;;;-0.38;100.00;61960.53;5044395;28;20259;-78
2021/12/14 05:51:39;;;;;;;6.38;4.38;;;;;;;-0.60;100.00;61940.00;5046592;28;20206;-77
2021/12/14 05:54:06;;;;;;;5.15;4.25;;;;;;;-0.63;100.00;61936.94;5044448;28;20239;-77
2021/12/14 05:56:34;;;;;;;5.57;3.90;;;;;;;-0.52;100.00;61943.69;5035934;28;20198;-77
2021/12/14 05:59:04;;;;;;;4.65;4.13;;;;;;;-0.45;100.00;61955.88;5041855;28;20522;-77
2021/12/14 06:01:33;;;;;;;7.90;4.22;;;;;;;-0.49;100.00;61949.28;5046134;28;20260;-77
2021/12/14 06:04:04;;;;;;;5.53;4.68;;;;;;;-0.45;100.00;61955.88;5044939;28;20280;-78
2021/12/14 06:06:34;;;;;;;5.18;3.22;;;;;;;-0.45;100.00;61947.88;5046362;28;20198;-77
2021/12/14 06:09:07;;;;;;;6.70;4.78;;;;;;;-0.48;100.00;61950.31;5047699;28;20230;-77
2021/12/14 06:11:34;;;;;;;5.07;4.60;;;;;;;-0.58;100.00;61940.06;5046822;28;20394;-76
2021/12/14 06:14:01;;;;;;;6.20;5.32;;;;;;;-0.56;100.00;61942.13;5040015;28;20222;-79
2021/12/14 06:16:31;;;;;;;7.50;5.93;;;;;;;-0.59;100.00;61939.06;5046725;28;20268;-78
2021/12/14 06:19:17;;;;;;;8.55;6.13;;;;;;;-0.66;100.00;61931.38;5046139;28;20390;-77
2021/12/14 06:21:44;;;;;;;6.43;5.45;;;;;;;-0.57;100.00;61943.59;5046127;28;20206;-78
2021/12/14 06:24:12;;;;;;;6.43;5.18;;;;;;;-0.50;100.00;61943.25;5042469;28;20332;-78
2021/12/14 06:26:41;;;;;;;7.28;5.35;;;;;;;-0.46;100.00;61954.84;5038139;28;20221;-77
2021/12/14 06:29:11;;;;;;;6.43;4.97;;;;;;;-0.60;100.00;61942.50;5046210;28;20249;-78
2021/12/14 06:31:39;;;;;;;5.95;4.88;;;;;;;-0.61;100.00;61937.00;5043479;28;20198;-79
2021/12/14 06:34:24;;;;;;;7.20;5.63;;;;;;;-0.52;100.00;61946.19;5041059;28;20221;-77
2021/12/14 06:37:27;;;;;;;7.22;5.95;;;;;;;-0.55;100.00;61940.13;5050077;28;20263;-77
2021/12/14 06:40:12;;;;;;;7.82;6.25;;;;;;;-0.50;100.00;61950.25;5027089;28;20415;-77
2021/12/14 06:42:43;;;;;;;6.07;5.25;;;;;;;-0.39;100.00;61961.50;5044961;28;20422;-77
2021/12/14 06:45:15;;;;;;;7.90;5.85;;;;;;;-0.43;100.00;61957.44;5047325;28;20202;-77
2021/12/14 06:47:43;;;;;;;5.85;5.28;;;;;;;-0.38;100.00;61960.06;5045983;28;20217;-77
2021/12/14 06:50:16;;;;;;;8.50;6.28;;;;;;;-0.43;100.00;61957.94;5045133;28;20235;-77
2021/12/14 06:52:44;;;;;;;9.52;5.68;;;;;;;-0.34;100.00;61964.66;5033368;28;20391;-78
2021/12/14 06:55:22;;;;;;;7.68;5.60;;;;;;;-0.25;100.00;61971.38;5043746;28;20294;-77
2021/12/14 06:57:49;;;;;;;7.07;5.70;;;;;;;-0.24;100.00;61974.38;5029043;28;20528;-76
2021/12/14 07:00:17;;;;;;;7.60;6.15;;;;;;;-0.25;100.00;61973.34;5031712;28;20266;-81
2021/12/14 07:02:49;;;;;;;6.68;5.97;;;;;;;-0.13;100.00;61988.16;5031954;28;20219;-77
2021/12/14 07:05:24;;;;;;;6.55;5.80;;;;;;;-0.03;100.00;62000.91;5045869;28;20206;-77
2021/12/14 07:07:51;;;;;;;6.93;5.68;;;;;;;0.00;100.00;62001.97;5044686;28;20221;-77
2021/12/14 07:10:21;;;;;;;7.22;6.40;;;;;;;0.08;100.00;62006.66;5046607;28;20415;-77
2021/12/14 07:12:48;;;;;;;9.48;6.88;;;;;;;-0.23;100.00;61972.91;5048700;28;20222;-78
2021/12/14 07:15:19;;;;;;;8.85;6.43;;;;;;;-0.06;100.00;61995.84;5053233;28;20226;-77
2021/12/14 07:17:53;;;;;;;8.35;7.13;;;;;;;-0.34;100.00;61964.66;5054734;28;20221;-77
2021/12/14 07:20:27;;;;;;;9.57;7.35;;;;;;;-0.29;100.00;61969.78;5044181;28;20202;-78
2021/12/14 07:22:56;;;;;;;9.82;7.60;;;;;;;-0.31;100.00;61965.22;5042215;28;20230;-79
2021/12/14 07:25:26;;;;;;;14.15;8.10;;;;;;;-0.41;100.00;61959.97;5047061;28;20221;-78
2021/12/14 07:27:55;;;;;;;9.88;7.75;;;;;;;-0.38;100.00;61957.53;5040413;28;20245;-79
2021/12/14 07:30:26;;;;;;;8.23;6.57;;;;;;;-0.30;100.00;61966.25;5046950;28;20202;-78
2021/12/14 07:33:03;;;;;;;9.13;6.45;;;;;;;-0.08;100.00;61988.28;5045732;28;20226;-78
2021/12/14 07:35:41;;;;;;;7.28;6.50;;;;;;;0.03;100.00;62002.56;5058746;28;20233;-78
2021/12/14 07:38:22;;;;;;;7.82;7.07;;;;;;;0.15;100.00;62016.34;5044922;28;20597;-78
2021/12/14 07:40:54;;;;;;;9.02;6.00;;;;;;;0.24;100.00;62026.09;5045121;28;20244;-79
2021/12/14 07:43:24;;;;;;;10.27;7.50;;;;;;;0.17;100.00;62018.91;5045358;28;20546;-77
2021/12/14 07:45:52;;;;;;;7.88;5.90;;;;;;;0.02;100.00;62000.53;5039669;28;20225;-77
2021/12/14 07:48:21;;;;;;;6.53;5.88;;;;;;;-0.20;100.00;61984.00;5029632;28;20249;-78
2021/12/14 07:50:53;;;;;;;8.57;6.25;;;;;;;0.05;100.00;62006.59;5040078;28;20202;-78
2021/12/14 07:53:41;;;;;;;7.95;6.65;;;;;;;0.19;100.00;62018.44;5039376;28;20425;-77
2021/12/14 07:56:10;;;;;;;8.27;6.18;;;;;;;0.25;100.00;62024.06;5036404;28;20237;-77
2021/12/14 07:58:47;;;;;;;8.23;6.30;;;;;;;0.23;100.00;62020.03;5044669;28;20221;-78
2021/12/14 08:01:15;;;;;;;10.63;6.40;;;;;;;0.26;100.00;62025.13;5037291;28;20229;-77
2021/12/14 08:03:43;;;;;;;7.30;6.57;;;;;;;0.39;100.00;62038.94;5035316;28;20298;-77
2021/12/14 08:06:14;;;;;;;8.40;6.53;;;;;;;0.48;100.00;62050.16;5044875;28;20229;-78
2021/12/14 08:08:44;;;;;;;7.57;6.07;;;;;;;0.49;100.00;62049.19;5044157;28;20234;-77
2021/12/14 08:14:03;;;;;;;9.45;7.20;;;;;;;0.56;100.00;62056.38;5036745;28;20590;-78
2021/12/14 08:16:40;;;;;;;5.95;5.28;;;;;;;0.56;100.00;62056.38;5044526;28;20246;-77
2021/12/14 08:19:07;;;;;;;8.57;5.90;;;;;;;0.57;100.00;62059.91;5044864;28;20296;-78
2021/12/14 08:21:35;;;;;;;9.15;6.72;;;;;;;0.39;100.00;62033.41;5048144;28;20206;-78
2021/12/14 08:24:05;;;;;;;6.28;5.68;;;;;;;0.42;100.00;62044.00;5046875;28;20266;-78
2021/12/14 08:26:35;;;;;;;6.93;6.22;;;;;;;0.45;100.00;62044.59;5040708;28;20234;-78
2021/12/14 08:29:05;;;;;;;8.38;6.13;;;;;;;0.49;100.00;62048.69;5042081;28;20226;-78
2021/12/14 08:31:35;;;;;;;7.63;6.10;;;;;;;0.55;100.00;62059.84;5040169;28;20221;-78
2021/12/14 08:34:10;;;;;;;7.65;5.45;;;;;;;0.63;100.00;62066.06;5035001;28;20225;-78
2021/12/14 08:36:41;;;;;;;7.07;5.78;;;;;;;0.55;100.00;62057.84;5039156;28;20569;-78
2021/12/14 08:39:12;;;;;;;7.78;6.22;;;;;;;0.64;100.00;62069.09;5043828;28;20287;-78
2021/12/14 08:41:46;;;;;;;8.75;6.38;;;;;;;0.66;100.00;62069.13;5041776;28;20217;-78
2021/12/14 08:44:20;;;;;;;7.38;6.57;;;;;;;0.61;100.00;62064.00;5042667;28;20259;-78
2021/12/14 08:46:49;;;;;;;10.73;7.35;;;;;;;0.62;100.00;62065.03;5038301;28;20274;-78
2021/12/14 08:49:18;;;;;;;11.20;7.75;;;;;;;0.72;100.00;62072.28;5043105;28;20222;-77
2021/12/14 08:51:48;;;;;;;9.88;7.53;;;;;;;0.89;100.00;62090.22;5039798;28;20245;-77
2021/12/14 08:54:21;;;;;;;8.95;6.90;;;;;;;0.91;100.00;62091.75;5044953;28;20451;-78
2021/12/14 08:56:52;;;;;;;10.60;7.07;;;;;;;0.99;100.00;62099.94;5045673;28;20233;-77
2021/12/14 08:59:19;;;;;;;10.45;7.90;;;;;;;0.97;100.00;62098.41;5047840;28;20226;-78
2021/12/14 09:01:47;;;;;;;9.60;6.85;;;;;;;1.06;100.00;62107.13;5046254;28;20247;-78
2021/12/14 09:04:19;;;;;;;12.93;7.97;;;;;;;1.08;100.00;62107.19;5047428;28;20421;-78
2021/12/14 09:06:50;;;;;;;11.02;8.50;;;;;;;1.08;100.00;62109.72;5042777;28;20198;-77
2021/12/14 09:09:22;;;;;;;12.07;8.23;;;;;;;1.19;100.00;62120.97;5036782;28;20221;-77
2021/12/14 09:11:54;;;;;;;14.20;8.93;;;;;;;1.27;100.00;62130.66;5038432;28;20198;-78
2021/12/14 09:14:21;;;;;;;10.38;8.13;;;;;;;1.26;100.00;62129.66;5046060;28;20221;-79
2021/12/14 09:16:54;;;;;;;11.07;7.72;;;;;;;1.33;100.00;62134.34;5045374;28;20248;-78
2021/12/14 09:19:24;;;;;;;9.15;7.78;;;;;;;1.45;100.00;62149.16;5046338;28;20225;-77
2021/12/14 09:21:55;;;;;;;10.45;7.78;;;;;;;1.59;100.00;62158.50;5049770;28;20259;-80
2021/12/14 09:24:26;;;;;;;12.50;7.45;;;;;;;1.69;100.00;62171.28;5049762;28;20222;-79
2021/12/14 09:26:57;;;;;;;9.43;8.25;;;;;;;1.87;100.00;62195.28;5046932;28;20226;-79
2021/12/14 09:29:25;;;;;;;10.85;8.02;;;;;;;1.86;100.00;62191.22;5047141;28;20286;-78
2021/12/14 09:31:54;;;;;;;8.40;6.65;;;;;;;1.91;100.00;62194.38;5048169;28;20217;-78
2021/12/14 09:34:24;;;;;;;8.27;6.65;;;;;;;1.94;100.00;62196.94;5047918;28;20272;-77
2021/12/14 09:36:53;;;;;;;6.93;5.93;;;;;;;1.88;100.00;62191.28;5047071;28;20264;-78
2021/12/14 09:39:25;;;;;;;7.53;6.50;;;;;;;1.88;100.00;62186.25;5045227;28;20217;-76
2021/12/14 09:41:53;;;;;;;10.43;7.40;;;;;;;1.78;100.00;62183.00;5046827;28;20206;-77
2021/12/14 09:44:24;;;;;;;10.48;7.50;;;;;;;1.78;100.00;62181.00;5047101;28;20233;-78
2021/12/14 09:46:53;;;;;;;7.72;6.78;;;;;;;1.78;100.00;62185.50;5041017;28;20277;-78
2021/12/14 09:49:21;;;;;;;8.85;7.13;;;;;;;1.66;100.00;62171.22;5034919;28;20272;-77
2021/12/14 09:51:51;;;;;;;9.88;7.18;;;;;;;1.53;100.00;62152.84;5041503;28;20198;-77
2021/12/14 09:54:22;;;;;;;7.93;6.03;;;;;;;1.51;100.00;62153.31;5044483;28;20214;-78
2021/12/14 09:56:53;;;;;;;10.02;7.88;;;;;;;1.62;100.00;62167.13;5044312;28;20254;-78
2021/12/14 09:59:21;;;;;;;10.73;7.57;;;;;;;1.71;100.00;62173.81;5048506;28;20222;-77
2021/12/14 10:01:51;;;;;;;10.30;7.90;;;;;;;1.78;100.00;62183.53;5042861;28;20226;-79
2021/12/14 10:04:21;;;;;;;9.38;7.50;;;;;;;1.83;100.00;62185.66;5053930;28;20248;-80
2021/12/14 10:06:49;;;;;;;10.23;7.53;;;;;;;2.05;100.00;62205.72;5053636;28;20210;-78
2021/12/14 10:09:21;;;;;;;11.45;7.60;;;;;;;2.09;100.00;62212.31;5054299;28;20226;-78
2021/12/14 10:12:03;;;;;;;10.57;7.75;;;;;;;2.25;100.00;62229.28;5053033;28;20257;-79
2021/12/14 10:14:34;;;;;;;12.15;8.30;;;;;;;2.32;100.00;62233.97;5051959;28;20221;-78
2021/12/14 10:17:02;;;;;;;10.07;7.57;;;;;;;2.36;100.00;62245.09;5044153;28;20214;-78
2021/12/14 10:19:34;;;;;;;10.25;8.35;;;;;;;2.28;100.00;62229.31;5046621;28;20240;-79
2021/12/14 10:22:04;;;;;;;10.20;8.10;;;;;;;2.35;100.00;62242.06;5044494;28;20202;-78
2021/12/14 10:24:34;;;;;;;9.98;7.88;;;;;;;2.38;100.00;62242.13;5045282;28;20277;-78
2021/12/14 10:27:04;;;;;;;9.85;8.77;;;;;;;1.95;100.00;62198.47;5039842;28;20224;-79
2021/12/14 10:29:32;;;;;;;12.65;9.10;;;;;;;2.18;100.00;62219.06;5039297;28;20210;-79
2021/12/14 10:32:05;;;;;;;11.93;8.63;;;;;;;2.21;100.00;62224.66;5043999;28;20252;-79
2021/12/14 10:34:35;;;;;;;11.73;9.45;;;;;;;2.35;100.00;62239.03;5049271;28;20234;-79
2021/12/14 10:37:11;;;;;;;10.27;8.48;;;;;;;2.42;100.00;62246.22;5052200;28;20234;-78
2021/12/14 10:42:39;;;;;;;11.35;8.35;;;;;;;2.31;100.00;62235.44;5054476;28;20229;-78
2021/12/14 10:42:52;;;;;;;15.48;9.27;;;;;;;2.42;100.00;62246.22;5050094;28;20198;-79
2021/12/14 10:45:19;;;;;;;16.45;9.98;;;;;;;2.52;100.00;62253.47;5049921;28;20210;-80
2021/12/14 10:47:46;;;;;;;16.25;11.35;;;;;;;2.49;100.00;62255.91;5048951;28;20264;-79
2021/12/14 10:50:16;;;;;;;13.18;9.68;;;;;;;2.49;100.00;62252.88;5046902;28;20261;-80
2021/12/14 10:52:44;;;;;;;13.50;10.50;;;;;;;2.24;100.00;62230.25;5046352;28;20322;-80
2021/12/14 10:55:16;;;;;;;15.77;11.18;;;;;;;2.31;100.00;62234.94;5039276;28;20199;-80
2021/12/14 10:57:44;;;;;;;19.98;10.68;;;;;;;2.38;100.00;62241.59;5046113;28;20218;-80
2021/12/14 11:00:18;;;;;;;16.10;11.77;;;;;;;2.35;100.00;62241.53;5047037;28;20202;-79
2021/12/14 11:02:45;;;;;;;19.35;11.25;;;;;;;2.28;100.00;62234.34;5043635;28;20284;-78
2021/12/14 11:05:18;;;;;;;20.08;11.68;;;;;;;2.20;100.00;62223.63;5046624;28;20229;-78
2021/12/14 11:07:47;;;;;;;17.67;11.80;;;;;;;2.05;100.00;62211.25;5042858;28;20305;-78
2021/12/14 11:10:19;;;;;;;17.70;12.25;;;;;;;2.29;100.00;62235.91;5042784;28;20198;-79
2021/12/14 11:12:50;;;;;;;17.77;12.50;;;;;;;2.43;100.00;62249.75;5045922;28;20234;-78
2021/12/14 11:15:20;;;;;;;17.52;12.23;;;;;;;2.54;100.00;62260.56;5040409;28;20506;-79
2021/12/14 11:20:37;;;;;;;19.38;12.68;;;;;;;1.70;100.00;62172.81;5046280;28;20593;-78
2021/12/14 11:23:09;;;;;;;18.77;13.07;;;;;;;1.94;100.00;62199.44;5045640;28;20229;-79
2021/12/14 11:25:44;;;;;;;21.52;14.05;;;;;;;1.47;100.00;62146.19;5042728;28;20232;-78
2021/12/14 11:28:21;;;;;;;21.40;13.95;;;;;;;1.67;100.00;62177.25;5045074;28;20257;-78
2021/12/14 11:30:51;;;;;;;18.77;12.75;;;;;;;1.85;100.00;62187.69;5036031;28;20457;-78
2021/12/14 11:33:21;;;;;;;19.00;13.52;;;;;;;1.94;100.00;62196.94;5043247;28;20560;-78
2021/12/14 11:35:53;;;;;;;20.17;14.63;;;;;;;1.96;100.00;62202.00;5046294;28;20240;-79
2021/12/14 11:38:27;;;;;;;21.83;14.95;;;;;;;1.70;100.00;62175.31;5044360;28;20218;-79
2021/12/14 11:40:56;;;;;;;23.52;14.65;;;;;;;1.49;100.00;62145.72;5047271;28;20456;-79
2021/12/14 11:43:26;;;;;;;18.40;12.45;;;;;;;1.52;100.00;62151.81;5038700;28;20230;-79
2021/12/14 11:45:53;;;;;;;18.30;12.45;;;;;;;1.61;100.00;62163.56;5048575;28;20208;-78
2021/12/14 11:48:30;;;;;;;14.52;11.00;;;;;;;1.61;100.00;62163.03;5047037;28;20256;-80
2021/12/14 11:50:58;;;;;;;14.25;10.98;;;;;;;1.36;100.00;62137.41;5047853;28;20202;-78
2021/12/14 11:53:25;;;;;;;17.13;11.48;;;;;;;1.50;100.00;62149.75;5036507;28;20463;-78
2021/12/14 11:55:56;;;;;;;14.27;10.23;;;;;;;1.31;100.00;62132.28;5041043;28;20483;-79
2021/12/14 11:58:30;;;;;;;21.60;11.85;;;;;;;0.83;100.00;62086.03;5046673;28;20229;-79
2021/12/14 12:01:02;;;;;;;17.30;11.05;;;;;;;0.66;100.00;62066.63;5040628;28;20215;-79
2021/12/14 12:03:34;;;;;;;18.02;11.00;;;;;;;0.88;100.00;62091.19;5043262;28;20457;-79
2021/12/14 12:06:09;;;;;;;18.58;12.18;;;;;;;0.98;100.00;62101.94;5044235;28;20206;-79
2021/12/14 12:11:33;;;;;;;19.25;11.27;;;;;;;0.80;100.00;62077.97;5045981;28;20398;-80